Time;durP1;ratioP1;P1;durP2;ratioP2;P2;SDS_P1;SDS_P2;PMS_P1;PMS_P2;Temp;Humidity;BMP_temperature;BMP_pressure;BME280_temperature;BME280_humidity;BME280_pressure;Samples;Min_cycle;Max_cycle;Signal;HPM_P1;HPM_P2
2022/04/24 00:01:52;;;;;;;6.15;3.97;;;;;;;12.82;62.99;99038.34;8356072;28;20382;-64
2022/04/24 00:05:52;;;;;;;4.93;4.00;;;;;;;12.83;63.15;99040.88;8368028;28;20049;-64
2022/04/24 00:09:52;;;;;;;4.05;3.60;;;;;;;12.72;63.42;99038.63;8356673;28;20418;-64
2022/04/24 00:13:53;;;;;;;5.25;3.70;;;;;;;12.71;63.12;99034.25;8354538;28;20041;-63
2022/04/24 00:17:53;;;;;;;5.15;3.95;;;;;;;12.62;63.55;99034.53;8359020;28;20041;-63
2022/04/24 00:21:55;;;;;;;4.03;3.63;;;;;;;12.61;63.44;99030.16;8381084;28;20046;-63
2022/04/24 00:25:56;;;;;;;6.53;3.72;;;;;;;12.56;63.45;99024.50;8377845;28;20286;-63
2022/04/24 00:29:56;;;;;;;5.03;3.47;;;;;;;12.62;62.97;99029.13;8385283;28;20098;-63
2022/04/24 00:33:57;;;;;;;5.82;3.88;;;;;;;12.64;62.97;99024.38;8360437;28;20417;-63
2022/04/24 00:37:57;;;;;;;3.90;3.50;;;;;;;12.72;62.66;99032.41;8362421;28;20041;-63
2022/04/24 00:41:58;;;;;;;4.95;3.40;;;;;;;12.80;62.18;99032.25;8361688;28;20045;-63
2022/04/24 00:46:29;;;;;;;4.75;3.63;;;;;;;12.67;62.60;99032.97;8361864;28;20472;-63
2022/04/24 00:50:29;;;;;;;6.88;4.10;;;;;;;12.64;62.88;99018.94;8356304;28;20033;-63
2022/04/24 00:54:29;;;;;;;4.15;3.65;;;;;;;12.64;62.80;99018.94;8378774;28;20041;-64
2022/04/24 00:58:30;;;;;;;3.92;3.45;;;;;;;12.69;62.61;99016.50;8361310;28;20041;-64
2022/04/24 01:02:30;;;;;;;5.35;3.88;;;;;;;12.59;62.87;99018.69;8361468;28;20086;-63
2022/04/24 01:06:33;;;;;;;3.70;3.38;;;;;;;12.53;63.08;99008.59;8361566;28;20409;-63
2022/04/24 01:10:38;;;;;;;3.88;3.47;;;;;;;12.56;63.05;99010.94;8361330;28;20049;-63
2022/04/24 01:14:38;;;;;;;4.85;3.78;;;;;;;12.58;63.03;99014.28;8371309;28;20132;-63
2022/04/24 01:18:41;;;;;;;5.57;3.58;;;;;;;12.54;63.00;99013.84;8372459;28;20044;-63
2022/04/24 01:22:41;;;;;;;6.10;3.97;;;;;;;12.52;63.31;99009.59;8372723;28;20040;-64
2022/04/24 01:26:42;;;;;;;4.78;3.53;;;;;;;12.47;63.34;99006.66;8361330;28;20098;-64
2022/04/24 01:30:42;;;;;;;4.90;3.55;;;;;;;12.40;63.64;98997.56;8361073;28;23757;-64
2022/04/24 01:34:43;;;;;;;5.05;3.80;;;;;;;12.38;63.98;99002.38;8360679;28;20045;-64
2022/04/24 01:38:43;;;;;;;4.30;3.65;;;;;;;12.46;63.73;99002.25;8360847;28;20044;-64
2022/04/24 01:42:44;;;;;;;3.85;3.47;;;;;;;12.38;64.03;98994.22;8359374;28;20131;-63
2022/04/24 01:46:44;;;;;;;4.50;3.60;;;;;;;12.44;63.89;99007.03;8360900;28;20037;-64
2022/04/24 01:50:44;;;;;;;5.30;3.97;;;;;;;12.44;63.97;99009.75;8376552;28;20094;-64
2022/04/24 01:54:45;;;;;;;5.03;3.83;;;;;;;12.52;63.51;99004.19;8363586;28;20500;-64
2022/04/24 01:58:46;;;;;;;4.38;3.83;;;;;;;12.40;63.98;98994.88;8357485;28;20048;-64
2022/04/24 02:02:47;;;;;;;5.68;3.90;;;;;;;12.28;63.92;98994.50;8364950;28;20040;-63
2022/04/24 02:06:47;;;;;;;4.35;3.88;;;;;;;12.24;64.77;98997.78;8369052;28;20405;-63
2022/04/24 02:10:49;;;;;;;4.20;3.77;;;;;;;12.22;64.51;98991.69;8357388;28;20152;-64
2022/04/24 02:14:49;;;;;;;6.28;4.53;;;;;;;12.27;64.45;98994.69;8359111;28;20628;-64
2022/04/24 02:18:50;;;;;;;4.15;3.70;;;;;;;12.26;64.55;98987.59;8368374;28;20044;-64
2022/04/24 02:22:50;;;;;;;7.13;3.80;;;;;;;12.22;64.67;98989.00;8387265;28;20044;-64
2022/04/24 02:26:51;;;;;;;4.93;4.10;;;;;;;12.31;64.47;98990.56;8374178;28;20148;-63
2022/04/24 02:30:51;;;;;;;4.38;3.97;;;;;;;12.34;64.22;98990.19;8357604;28;20041;-64
2022/04/24 02:34:52;;;;;;;5.50;4.47;;;;;;;12.38;64.10;98986.09;8359100;28;20041;-63
2022/04/24 02:38:52;;;;;;;7.85;4.05;;;;;;;12.38;64.43;98986.91;8358760;28;20532;-63
2022/04/24 02:42:52;;;;;;;4.95;4.32;;;;;;;12.40;64.17;98989.44;8356561;28;20041;-64
2022/04/24 02:46:53;;;;;;;4.75;4.32;;;;;;;12.49;63.65;98980.19;8340298;28;20512;-64
2022/04/24 02:50:54;;;;;;;4.40;3.92;;;;;;;12.53;63.81;98990.44;8375980;28;20060;-63
2022/04/24 02:54:54;;;;;;;6.82;4.38;;;;;;;12.57;63.57;98997.19;8369889;28;20040;-64
2022/04/24 02:58:55;;;;;;;4.93;4.22;;;;;;;12.56;63.75;98995.50;8364188;28;20064;-64
2022/04/24 03:02:56;;;;;;;4.95;4.22;;;;;;;12.58;63.41;98992.59;8358090;28;20142;-64
2022/04/24 03:06:56;;;;;;;6.83;4.17;;;;;;;12.48;64.35;98992.06;8358239;28;20106;-64
2022/04/24 03:10:57;;;;;;;5.53;4.45;;;;;;;12.39;64.78;98993.19;8357631;28;20288;-64
2022/04/24 03:14:57;;;;;;;5.20;3.85;;;;;;;12.36;64.46;98989.00;8357691;28;20044;-64
2022/04/24 03:18:57;;;;;;;6.82;4.60;;;;;;;12.30;64.88;98986.19;8357797;28;20045;-64
2022/04/24 03:22:58;;;;;;;6.93;4.10;;;;;;;12.22;65.47;98986.28;8385928;28;20039;-64
2022/04/24 03:26:58;;;;;;;5.15;4.53;;;;;;;12.18;65.33;98985.00;8372913;28;20090;-64
2022/04/24 03:30:58;;;;;;;5.03;4.43;;;;;;;12.06;65.72;98989.19;8357576;28;20037;-64
2022/04/24 03:35:00;;;;;;;5.78;4.18;;;;;;;12.00;65.79;98981.81;8357345;28;20076;-64
2022/04/24 03:39:00;;;;;;;6.68;5.10;;;;;;;11.93;66.03;98986.31;8357806;28;20025;-63
2022/04/24 03:43:01;;;;;;;5.97;5.37;;;;;;;11.82;66.30;98985.75;8364380;28;20330;-63
2022/04/24 03:47:01;;;;;;;6.47;4.65;;;;;;;11.73;66.64;98986.88;8381431;28;20416;-63
2022/04/24 03:51:04;;;;;;;6.03;5.43;;;;;;;11.63;67.30;98986.31;8388372;28;20405;-65
2022/04/24 03:55:04;;;;;;;5.40;4.85;;;;;;;11.55;67.73;98985.47;8374492;28;20044;-63
2022/04/24 03:59:05;;;;;;;6.07;5.47;;;;;;;11.49;67.96;98991.63;8364565;28;20041;-63
2022/04/24 04:03:05;;;;;;;6.00;5.40;;;;;;;11.43;68.15;98993.22;8363764;28;20045;-64
2022/04/24 04:07:06;;;;;;;5.60;5.00;;;;;;;11.39;68.44;98993.75;8363787;28;20442;-63
2022/04/24 04:11:07;;;;;;;5.90;5.30;;;;;;;11.37;68.99;98991.25;8362232;28;20049;-64
2022/04/24 04:15:08;;;;;;;14.63;5.28;;;;;;;11.23;69.02;99000.13;8361776;28;20112;-63
2022/04/24 04:19:08;;;;;;;6.85;5.15;;;;;;;11.26;69.01;98998.97;8363850;28;20037;-63
2022/04/24 04:23:09;;;;;;;7.32;5.82;;;;;;;11.12;69.92;99008.69;8389928;28;20049;-64
2022/04/24 04:27:10;;;;;;;8.13;5.78;;;;;;;10.90;71.22;99020.38;8363508;28;20535;-64
2022/04/24 04:31:12;;;;;;;6.05;5.32;;;;;;;10.82;71.50;99016.84;8361279;28;20076;-63
2022/04/24 04:35:13;;;;;;;6.97;5.60;;;;;;;10.74;72.31;99025.84;8368326;28;20044;-64
2022/04/24 04:39:13;;;;;;;7.53;6.32;;;;;;;10.39;74.02;99029.09;8365141;28;20043;-64
2022/04/24 04:43:14;;;;;;;7.63;5.95;;;;;;;10.32;74.85;99027.25;8373270;28;20065;-64
2022/04/24 04:47:14;;;;;;;7.20;6.15;;;;;;;10.14;75.96;99027.50;8370697;28;20507;-64
2022/04/24 04:51:15;;;;;;;11.00;6.78;;;;;;;9.92;78.19;99028.22;8380967;28;20373;-65
2022/04/24 04:55:15;;;;;;;9.23;6.68;;;;;;;9.95;77.60;99034.09;8384305;28;20040;-65
2022/04/24 04:59:16;;;;;;;10.85;7.13;;;;;;;10.08;77.33;99033.59;8369466;28;20090;-65
2022/04/24 05:03:16;;;;;;;10.93;6.65;;;;;;;10.10;77.22;99039.69;8361340;28;20040;-64
2022/04/24 05:07:16;;;;;;;7.22;6.53;;;;;;;10.13;77.57;99046.56;8361918;28;20114;-64
2022/04/24 05:11:17;;;;;;;12.98;7.63;;;;;;;10.07;78.12;99048.13;8361289;28;20041;-64
2022/04/24 05:15:21;;;;;;;10.70;6.97;;;;;;;10.43;78.09;99060.13;8360225;28;20036;-63
2022/04/24 05:19:21;;;;;;;7.18;5.97;;;;;;;10.88;75.33;99059.38;8363763;28;20037;-63
2022/04/24 05:23:21;;;;;;;9.53;7.30;;;;;;;11.06;74.50;99066.22;8378567;28;20045;-63
2022/04/24 05:27:22;;;;;;;7.53;6.07;;;;;;;11.12;74.36;99076.31;8371200;28;20825;-63
2022/04/24 05:31:22;;;;;;;10.30;6.35;;;;;;;11.33;71.83;99065.69;8361138;28;20033;-64
2022/04/24 05:35:23;;;;;;;7.35;6.20;;;;;;;11.53;70.62;99072.28;8359289;28;20060;-64
2022/04/24 05:39:23;;;;;;;10.00;6.60;;;;;;;11.65;71.89;99078.97;8359389;28;20033;-64
2022/04/24 05:43:24;;;;;;;8.32;6.43;;;;;;;11.76;70.22;99086.66;8360385;28;20396;-63
2022/04/24 05:47:24;;;;;;;9.63;7.57;;;;;;;11.74;73.01;99091.41;8359073;28;20052;-63
2022/04/24 05:51:25;;;;;;;9.68;7.15;;;;;;;11.82;74.10;99088.66;8372836;28;20623;-64
2022/04/24 05:55:26;;;;;;;11.77;7.17;;;;;;;11.86;71.64;99089.09;8365675;28;20082;-64
2022/04/24 05:59:27;;;;;;;8.82;7.60;;;;;;;11.93;71.81;99086.50;8377830;28;20308;-64
2022/04/24 06:03:27;;;;;;;8.35;6.93;;;;;;;12.01;72.36;99094.56;8374893;28;20044;-63
2022/04/24 06:07:27;;;;;;;8.65;7.05;;;;;;;12.13;70.15;99093.09;8366548;28;20033;-64
2022/04/24 06:11:28;;;;;;;9.27;7.45;;;;;;;12.11;70.38;99093.28;8357271;28;20052;-64
2022/04/24 06:15:28;;;;;;;10.40;7.55;;;;;;;12.18;70.60;99093.34;8363994;28;20043;-64
2022/04/24 06:19:29;;;;;;;10.27;8.07;;;;;;;12.17;70.83;99086.25;8362917;28;20105;-64
2022/04/24 06:23:31;;;;;;;9.27;8.10;;;;;;;12.12;70.96;99088.69;8374868;28;20044;-64
2022/04/24 06:27:32;;;;;;;12.57;8.77;;;;;;;12.15;71.54;99085.59;8363388;28;20524;-64
2022/04/24 06:31:32;;;;;;;14.10;8.00;;;;;;;12.26;71.64;99091.38;8365982;28;20385;-64
2022/04/24 06:35:32;;;;;;;9.77;7.38;;;;;;;12.37;69.60;99096.34;8360656;28;20033;-64
2022/04/24 06:39:34;;;;;;;10.65;7.78;;;;;;;12.67;68.61;99100.75;8340229;28;20037;-64
2022/04/24 06:43:34;;;;;;;8.48;7.53;;;;;;;12.73;68.16;99093.72;8369182;28;20044;-64
2022/04/24 06:47:34;;;;;;;11.40;8.17;;;;;;;12.61;66.54;99100.66;8360226;28;20120;-64
2022/04/24 06:51:35;;;;;;;12.50;8.57;;;;;;;12.64;67.55;99100.28;8360911;28;20629;-64
2022/04/24 06:55:37;;;;;;;8.80;7.82;;;;;;;12.56;67.02;99100.38;8367468;28;20355;-64
2022/04/24 06:59:38;;;;;;;11.27;8.88;;;;;;;12.61;67.33;99100.66;8358271;28;20029;-64
2022/04/24 07:03:38;;;;;;;9.37;7.83;;;;;;;12.71;66.92;99106.63;8370374;28;20051;-64
2022/04/24 07:07:38;;;;;;;7.97;7.17;;;;;;;12.90;66.45;99106.06;8367052;28;20374;-64
2022/04/24 07:11:40;;;;;;;10.60;7.93;;;;;;;13.11;66.96;99103.41;8366612;28;20294;-64
2022/04/24 07:15:40;;;;;;;11.13;8.02;;;;;;;13.41;65.82;99099.56;8356125;28;20039;-64
2022/04/24 07:19:41;;;;;;;10.95;7.80;;;;;;;13.64;65.53;99111.09;8363675;28;20044;-63
2022/04/24 07:23:41;;;;;;;10.02;8.27;;;;;;;13.66;64.44;99115.28;8358773;28;20043;-63
2022/04/24 07:27:42;;;;;;;9.37;7.83;;;;;;;13.76;64.10;99120.41;8356987;28;20044;-63
2022/04/24 07:31:43;;;;;;;11.30;8.23;;;;;;;13.82;64.32;99119.63;8361942;28;20337;-63
2022/04/24 07:35:43;;;;;;;12.27;8.57;;;;;;;13.66;64.19;99119.84;8358019;28;20037;-63
2022/04/24 07:39:44;;;;;;;12.05;9.25;;;;;;;13.90;63.28;99122.19;8349940;28;20529;-63
2022/04/24 07:43:48;;;;;;;10.65;8.60;;;;;;;14.60;62.77;99109.34;8351609;28;20060;-63
2022/04/24 07:47:50;;;;;;;11.85;8.50;;;;;;;14.19;62.30;99118.44;8365040;28;20055;-63
2022/04/24 07:51:50;;;;;;;17.10;8.18;;;;;;;14.21;63.27;99113.66;8357331;28;20523;-63
2022/04/24 07:55:51;;;;;;;10.52;8.25;;;;;;;14.21;63.48;99110.94;8370593;28;20378;-64
2022/04/24 07:59:51;;;;;;;9.55;7.93;;;;;;;14.26;63.30;99113.94;8355716;28;20502;-63
2022/04/24 08:03:52;;;;;;;11.63;8.30;;;;;;;14.41;63.24;99104.63;8361513;28;20056;-63
2022/04/24 08:07:54;;;;;;;11.88;7.97;;;;;;;14.58;63.34;99105.97;8352156;28;20287;-63
2022/04/24 08:11:54;;;;;;;9.45;8.45;;;;;;;14.53;62.91;99108.47;8350247;28;20195;-63
2022/04/24 08:15:56;;;;;;;9.40;8.50;;;;;;;14.65;63.00;99112.31;8351429;28;20041;-63
2022/04/24 08:19:56;;;;;;;10.32;8.85;;;;;;;14.72;63.30;99117.78;8356090;28;20041;-63
2022/04/24 08:23:56;;;;;;;14.23;8.57;;;;;;;14.85;62.19;99124.13;8353689;28;20052;-63
2022/04/24 08:27:57;;;;;;;10.27;8.23;;;;;;;14.82;61.81;99119.09;8347458;28;20114;-63
2022/04/24 08:31:57;;;;;;;9.73;8.38;;;;;;;15.36;62.10;99119.94;8347034;28;20496;-62
2022/04/24 08:35:58;;;;;;;9.43;8.48;;;;;;;15.50;59.57;99118.13;8347968;28;20983;-55
2022/04/24 08:39:58;;;;;;;12.98;9.60;;;;;;;15.79;59.55;99123.22;8365425;28;20048;-61
2022/04/24 08:44:01;;;;;;;11.40;8.95;;;;;;;15.67;59.56;99125.72;8355669;28;20091;-63
2022/04/24 08:48:04;;;;;;;11.95;8.52;;;;;;;15.74;59.33;99115.66;8336879;28;20048;-63
2022/04/24 08:52:05;;;;;;;11.02;9.35;;;;;;;15.97;59.74;99103.50;8340807;28;20041;-63
2022/04/24 08:56:05;;;;;;;11.82;9.02;;;;;;;15.80;59.61;99110.44;8341870;28;20584;-63
2022/04/24 09:00:08;;;;;;;13.07;9.17;;;;;;;15.97;59.29;99108.94;8342903;28;20402;-63
2022/04/24 09:04:08;;;;;;;9.88;8.40;;;;;;;16.41;57.80;99114.63;8339739;28;20276;-64
2022/04/24 09:08:11;;;;;;;14.70;9.45;;;;;;;16.41;57.32;99117.34;8342060;28;20131;-63
2022/04/24 09:12:15;;;;;;;10.98;8.50;;;;;;;16.49;57.08;99111.69;8349771;28;20392;-63
2022/04/24 09:16:15;;;;;;;10.83;8.83;;;;;;;16.82;56.60;99109.72;8348388;28;20402;-63
2022/04/24 09:20:18;;;;;;;10.63;8.57;;;;;;;16.56;56.81;99104.34;8363290;28;20140;-63
2022/04/24 09:24:20;;;;;;;13.95;8.80;;;;;;;17.18;56.82;99104.53;8348577;28;20036;-64
2022/04/24 09:28:20;;;;;;;13.27;8.63;;;;;;;17.44;56.46;99104.44;8346322;28;20472;-63
2022/04/24 09:32:22;;;;;;;11.07;9.18;;;;;;;17.51;56.04;99099.78;8354471;28;20428;-64
2022/04/24 09:36:25;;;;;;;14.00;9.45;;;;;;;18.04;54.69;99095.59;8322113;28;20040;-63
2022/04/24 09:40:37;;;;;;;13.90;8.88;;;;;;;18.40;54.00;99103.97;8338763;28;20087;-63
2022/04/24 09:48:53;;;;;;;11.45;8.27;;;;;;;18.57;54.02;99096.81;8329289;28;20145;-63
2022/04/24 09:52:54;;;;;;;12.13;9.38;;;;;;;18.62;53.67;99110.69;8395883;28;20032;-63
2022/04/24 09:56:56;;;;;;;14.85;9.10;;;;;;;18.63;53.33;99104.13;8398215;28;20032;-63
2022/04/24 10:00:57;;;;;;;14.43;8.30;;;;;;;18.67;53.12;99102.59;8394985;28;20150;-63
2022/04/24 10:04:58;;;;;;;9.90;8.35;;;;;;;19.76;52.31;99097.03;8397497;28;20072;-62
2022/04/24 10:09:00;;;;;;;10.82;7.93;;;;;;;21.66;47.76;99097.91;8399166;28;20403;-62
2022/04/24 10:13:01;;;;;;;10.77;8.15;;;;;;;21.73;47.02;99102.16;8397083;28;20362;-63
2022/04/24 10:17:26;;;;;;;9.77;8.25;;;;;;;21.97;47.84;99106.50;8398012;28;20040;-63
2022/04/24 10:21:41;;;;;;;11.77;8.30;;;;;;;23.06;45.47;99098.31;8339132;28;20036;-63
2022/04/24 10:25:43;;;;;;;10.93;7.45;;;;;;;22.34;46.29;99104.09;8395045;28;20036;-63
2022/04/24 10:29:52;;;;;;;10.23;8.02;;;;;;;22.01;46.35;99115.09;8399634;28;20047;-63
2022/04/24 10:33:54;;;;;;;8.75;7.82;;;;;;;22.44;45.21;99105.09;8399441;28;20364;-63
2022/04/24 10:38:07;;;;;;;9.48;7.85;;;;;;;21.37;47.35;99116.31;8340868;28;20032;-64
2022/04/24 10:42:12;;;;;;;9.18;7.63;;;;;;;22.53;45.84;99105.53;8406434;28;20161;-63
2022/04/24 10:46:16;;;;;;;10.00;8.88;;;;;;;21.32;46.61;99116.22;8399517;28;20722;-64
2022/04/24 10:50:18;;;;;;;9.65;8.65;;;;;;;20.76;47.60;99105.88;8404886;28;20043;-64
2022/04/24 10:54:18;;;;;;;9.07;8.15;;;;;;;22.16;46.06;99109.84;8404751;28;20704;-63
2022/04/24 10:58:27;;;;;;;9.52;8.20;;;;;;;23.35;44.61;99112.81;8395589;28;20033;-64
2022/04/24 11:02:30;;;;;;;11.80;7.88;;;;;;;23.28;44.29;99105.81;8384634;28;20037;-63
2022/04/24 11:06:30;;;;;;;8.55;7.50;;;;;;;22.52;45.38;99101.97;8385068;28;20067;-63
2022/04/24 11:10:39;;;;;;;8.90;7.95;;;;;;;21.49;47.06;99106.09;8384923;28;20065;-63
2022/04/24 11:14:40;;;;;;;8.45;7.57;;;;;;;21.85;47.48;99108.47;8383485;28;20463;-63
2022/04/24 11:18:47;;;;;;;9.35;7.55;;;;;;;21.76;46.36;99101.72;8385319;28;20068;-63
2022/04/24 11:22:53;;;;;;;11.57;7.85;;;;;;;23.36;44.26;99108.13;8385125;28;20036;-63
2022/04/24 11:26:54;;;;;;;8.43;7.32;;;;;;;22.71;45.07;99105.25;8338564;28;20039;-63
2022/04/24 11:30:55;;;;;;;9.40;7.28;;;;;;;21.16;47.69;99104.06;8223155;28;20038;-63
2022/04/24 11:34:56;;;;;;;10.25;8.43;;;;;;;20.16;50.16;99109.09;8241784;28;20043;-63
2022/04/24 11:38:57;;;;;;;11.90;8.10;;;;;;;22.12;46.67;99101.28;8244038;28;20107;-62
2022/04/24 11:43:06;;;;;;;8.68;7.78;;;;;;;21.68;47.08;99113.06;8243389;28;20473;-62
2022/04/24 11:51:31;;;;;;;13.68;9.02;;;;;;;22.36;45.88;99113.81;8225969;28;20042;-63
2022/04/24 11:56:24;;;;;;;9.90;8.10;;;;;;;22.33;46.39;99125.31;8223133;28;20046;-63
2022/04/24 11:59:54;;;;;;;9.95;7.60;;;;;;;20.97;48.03;99129.19;8228420;28;20463;-62
2022/04/24 12:03:55;;;;;;;9.45;7.72;;;;;;;20.98;50.53;99117.94;8228862;28;20075;-62
2022/04/24 12:07:56;;;;;;;10.98;9.18;;;;;;;20.68;49.01;99124.66;8234546;28;20050;-62
2022/04/24 12:12:13;;;;;;;8.85;7.95;;;;;;;20.40;49.19;99119.84;8240777;28;20041;-61
2022/04/24 12:16:22;;;;;;;10.48;8.48;;;;;;;20.51;49.08;99130.00;8236474;28;20133;-61
2022/04/24 12:20:35;;;;;;;11.48;8.07;;;;;;;19.72;50.77;99147.91;8238462;28;20451;-61
2022/04/24 12:24:43;;;;;;;13.95;7.85;;;;;;;19.81;50.81;99138.28;8239420;28;20046;-62
2022/04/24 12:28:43;;;;;;;11.68;8.13;;;;;;;19.75;49.60;99131.84;8238810;28;20038;-62
2022/04/24 12:32:44;;;;;;;10.35;7.80;;;;;;;19.83;49.64;99147.97;8239904;28;20085;-62
2022/04/24 12:36:50;;;;;;;8.52;7.25;;;;;;;20.08;50.01;99140.41;8240367;28;20045;-62
2022/04/24 12:40:57;;;;;;;8.75;7.45;;;;;;;20.01;49.70;99134.22;8236649;28;20050;-63
2022/04/24 12:44:58;;;;;;;8.73;7.43;;;;;;;19.56;49.72;99143.09;8239087;28;20426;-62
2022/04/24 12:48:58;;;;;;;8.35;7.10;;;;;;;19.55;50.03;99141.44;8237221;28;20157;-62
2022/04/24 12:52:59;;;;;;;11.88;7.10;;;;;;;19.49;50.24;99149.50;8237419;28;20030;-62
2022/04/24 12:56:59;;;;;;;9.82;7.68;;;;;;;19.04;51.04;99148.16;8236858;28;20498;-62
2022/04/24 13:01:00;;;;;;;8.40;7.05;;;;;;;18.83;51.37;99150.47;8239800;28;20084;-62
2022/04/24 13:05:00;;;;;;;8.77;7.88;;;;;;;19.05;50.47;99155.28;8238922;28;20069;-62
2022/04/24 13:09:01;;;;;;;9.98;7.63;;;;;;;19.57;49.85;99145.59;8238144;28;20531;-63
2022/04/24 13:13:02;;;;;;;14.15;7.53;;;;;;;19.87;48.95;99148.34;8233713;28;20045;-62
2022/04/24 13:18:07;;;;;;;8.25;7.10;;;;;;;19.57;50.28;99153.81;8233624;28;20054;-62
2022/04/24 13:21:23;;;;;;;10.27;7.38;;;;;;;18.93;50.59;99151.63;8238332;28;20042;-62
2022/04/24 13:25:24;;;;;;;8.32;7.40;;;;;;;18.80;49.85;99157.25;8253462;28;20070;-62
2022/04/24 13:29:25;;;;;;;8.63;7.33;;;;;;;19.26;48.74;99146.66;8237411;28;20034;-62
2022/04/24 13:33:27;;;;;;;8.45;6.80;;;;;;;19.72;48.76;99150.66;8238355;28;20511;-62
2022/04/24 13:38:29;;;;;;;6.93;6.07;;;;;;;20.10;49.25;99137.44;8237579;28;20038;-62
2022/04/24 13:41:48;;;;;;;8.70;6.70;;;;;;;19.98;48.13;99145.66;8235090;28;20579;-62
2022/04/24 13:45:50;;;;;;;7.40;5.83;;;;;;;19.93;49.36;99144.66;8235890;28;20444;-62
2022/04/24 13:49:51;;;;;;;7.45;6.35;;;;;;;19.75;48.52;99161.16;8226547;28;20278;-62
2022/04/24 13:53:52;;;;;;;7.30;6.43;;;;;;;19.52;48.60;99168.22;8237409;28;20065;-61
2022/04/24 13:57:53;;;;;;;9.23;6.72;;;;;;;19.59;47.71;99162.66;8237091;28;20042;-63
2022/04/24 14:01:54;;;;;;;7.03;6.32;;;;;;;19.72;47.72;99161.63;8238440;28;20113;-63
2022/04/24 14:05:55;;;;;;;9.53;6.03;;;;;;;19.82;47.45;99150.97;8235121;28;20546;-63
2022/04/24 14:09:55;;;;;;;6.53;5.72;;;;;;;19.84;47.47;99154.28;8236100;28;20345;-63
2022/04/24 14:13:55;;;;;;;7.10;5.75;;;;;;;20.17;47.41;99157.41;8236612;28;20406;-63
2022/04/24 14:17:56;;;;;;;6.95;5.82;;;;;;;20.01;46.44;99155.31;8237092;28;20437;-63
2022/04/24 14:21:57;;;;;;;7.72;5.72;;;;;;;19.66;46.75;99173.53;8232292;28;20039;-63
2022/04/24 14:25:57;;;;;;;6.03;5.43;;;;;;;19.25;47.07;99166.84;8231282;28;20157;-62
2022/04/24 14:29:58;;;;;;;8.88;5.40;;;;;;;19.18;47.68;99174.31;8237007;28;20481;-63
2022/04/24 14:33:58;;;;;;;6.27;5.67;;;;;;;19.54;46.18;99169.91;8239055;28;20038;-63
2022/04/24 14:38:00;;;;;;;5.40;4.90;;;;;;;19.71;46.80;99159.97;8229953;28;20285;-63
2022/04/24 14:42:01;;;;;;;5.72;5.13;;;;;;;19.94;46.21;99171.03;8222881;28;20149;-63
2022/04/24 14:55:44;;;;;;;9.13;5.78;;;;;;;19.40;46.69;99186.50;8233084;28;20038;-62
2022/04/24 14:59:04;;;;;;;7.18;6.28;;;;;;;19.16;47.17;99189.31;8239172;28;20057;-62
2022/04/24 15:03:05;;;;;;;8.25;6.05;;;;;;;19.21;47.17;99198.50;8228163;28;20042;-63
2022/04/24 15:07:05;;;;;;;6.80;5.50;;;;;;;19.77;46.94;99212.00;8233159;28;20584;-62
2022/04/24 15:11:06;;;;;;;7.93;6.40;;;;;;;19.57;46.66;99213.31;8239573;28;20817;-62
2022/04/24 15:15:07;;;;;;;6.78;6.18;;;;;;;19.08;47.94;99206.03;8238052;28;20072;-62
2022/04/24 15:19:08;;;;;;;6.60;5.85;;;;;;;19.10;48.72;99213.00;8234440;28;20322;-63
2022/04/24 15:23:09;;;;;;;7.72;5.45;;;;;;;19.25;47.28;99216.16;8235100;28;20038;-63
2022/04/24 15:27:09;;;;;;;7.20;5.97;;;;;;;19.09;46.39;99214.03;8234199;28;20057;-64
2022/04/24 15:31:09;;;;;;;5.93;5.32;;;;;;;19.12;47.17;99221.78;8235900;28;20039;-61
2022/04/24 15:35:10;;;;;;;6.70;5.75;;;;;;;19.15;48.25;99226.81;8209102;28;20428;-61
2022/04/24 15:39:11;;;;;;;7.60;6.07;;;;;;;18.99;48.05;99221.94;8216624;28;20203;-61
2022/04/24 15:43:11;;;;;;;8.15;6.07;;;;;;;18.91;47.69;99226.88;8224106;28;20057;-62
2022/04/24 15:47:12;;;;;;;7.82;6.07;;;;;;;18.94;47.83;99229.97;8226945;28;20051;-63
2022/04/24 15:51:13;;;;;;;10.30;5.87;;;;;;;18.89;47.88;99238.06;8230793;28;20115;-62
2022/04/24 15:55:15;;;;;;;5.30;4.80;;;;;;;19.04;47.66;99230.34;8232555;28;20638;-63
2022/04/24 15:59:16;;;;;;;7.10;5.72;;;;;;;19.15;47.49;99232.31;8234673;28;20043;-63
2022/04/24 16:03:16;;;;;;;10.07;5.90;;;;;;;19.19;47.45;99238.19;8234231;28;20039;-62
2022/04/24 16:07:17;;;;;;;8.35;5.47;;;;;;;19.47;47.37;99246.75;8235989;28;20289;-63
2022/04/24 16:11:19;;;;;;;8.40;5.72;;;;;;;19.40;46.90;99244.06;8235116;28;20053;-60
2022/04/24 16:15:19;;;;;;;7.35;5.70;;;;;;;19.48;46.35;99253.06;8235398;28;20038;-62
2022/04/24 16:19:21;;;;;;;6.75;5.45;;;;;;;19.59;46.95;99241.34;8232888;28;20038;-63
2022/04/24 16:23:21;;;;;;;7.82;5.47;;;;;;;19.37;46.05;99246.44;8232861;28;20750;-61
2022/04/24 16:27:21;;;;;;;10.80;5.20;;;;;;;19.36;46.18;99247.50;8230514;28;20716;-62
2022/04/24 16:31:22;;;;;;;6.70;5.53;;;;;;;19.36;45.86;99262.03;8236218;28;20038;-61
2022/04/24 16:35:23;;;;;;;7.57;5.30;;;;;;;19.39;46.84;99258.84;8235543;28;20146;-61
2022/04/24 16:39:23;;;;;;;8.07;4.90;;;;;;;19.08;46.80;99269.03;8234533;28;20043;-62
2022/04/24 16:43:24;;;;;;;5.82;5.30;;;;;;;18.79;46.92;99258.78;8229801;28;20045;-63
2022/04/24 16:47:24;;;;;;;7.68;5.75;;;;;;;18.77;47.32;99272.72;8229052;28;20098;-62
2022/04/24 17:00:06;;;;;;;5.55;5.00;;;;;;;18.68;47.75;99276.78;8229595;28;20693;-62
2022/04/24 17:04:07;;;;;;;7.85;5.57;;;;;;;18.61;47.94;99278.75;8237486;28;20095;-62
2022/04/24 17:08:08;;;;;;;8.15;4.80;;;;;;;18.55;48.13;99279.63;8231281;28;20050;-62
2022/04/24 17:12:09;;;;;;;8.93;5.07;;;;;;;18.42;48.92;99278.88;8234436;28;20073;-62
2022/04/24 17:16:10;;;;;;;6.10;4.88;;;;;;;18.24;49.24;99278.75;8227744;28;20046;-62
2022/04/24 17:20:10;;;;;;;5.50;4.30;;;;;;;18.23;49.38;99280.63;8232921;28;20129;-62
2022/04/24 17:24:10;;;;;;;7.00;4.22;;;;;;;18.20;49.86;99286.56;8231623;28;20049;-62
2022/04/24 17:28:11;;;;;;;7.97;4.65;;;;;;;18.20;49.56;99291.19;8234939;28;20042;-62
2022/04/24 17:32:14;;;;;;;6.63;4.47;;;;;;;18.17;50.25;99300.66;8236632;28;20334;-63
2022/04/24 17:36:14;;;;;;;6.88;5.03;;;;;;;18.07;50.82;99297.56;8237392;28;20046;-63
2022/04/24 17:40:15;;;;;;;6.47;5.10;;;;;;;18.04;51.10;99306.22;8238516;28;20042;-62
2022/04/24 17:44:16;;;;;;;5.95;4.57;;;;;;;18.12;51.23;99303.25;8226103;28;20270;-62
2022/04/24 17:48:17;;;;;;;8.05;5.00;;;;;;;17.98;51.02;99309.81;8245523;28;20066;-62
2022/04/24 17:52:20;;;;;;;7.32;5.07;;;;;;;17.86;51.35;99322.47;8248159;28;20563;-62
2022/04/24 17:56:21;;;;;;;8.27;5.07;;;;;;;17.70;51.72;99325.69;8248739;28;20034;-62
2022/04/24 18:00:21;;;;;;;8.45;5.15;;;;;;;17.54;51.87;99334.38;8237878;28;20149;-62
2022/04/24 18:04:22;;;;;;;6.32;5.25;;;;;;;17.46;51.99;99337.31;8242475;28;20065;-61
2022/04/24 18:08:23;;;;;;;6.78;5.50;;;;;;;17.26;51.80;99333.78;8242352;28;20434;-62
2022/04/24 18:12:25;;;;;;;8.32;5.32;;;;;;;17.13;52.26;99347.41;8249699;28;20342;-63
2022/04/24 18:16:27;;;;;;;5.68;5.07;;;;;;;16.89;53.09;99342.56;8246335;28;20060;-62
2022/04/24 18:20:28;;;;;;;7.43;4.95;;;;;;;16.70;53.93;99349.72;8249304;28;20049;-61
2022/04/24 18:24:29;;;;;;;6.13;5.30;;;;;;;16.63;54.20;99362.53;8250522;28;20038;-61
2022/04/24 18:28:30;;;;;;;6.07;5.03;;;;;;;16.56;54.32;99360.81;8247754;28;20034;-61
2022/04/24 18:32:30;;;;;;;8.50;5.20;;;;;;;16.49;54.63;99376.31;8249958;28;20410;-62
2022/04/24 18:37:38;;;;;;;5.82;5.05;;;;;;;16.41;54.85;99379.22;8249852;28;20533;-62
2022/04/24 18:40:51;;;;;;;6.18;5.57;;;;;;;16.35;55.14;99382.78;8247540;28;20042;-62
2022/04/24 18:44:51;;;;;;;7.55;4.80;;;;;;;16.27;55.39;99382.94;8248926;28;20164;-61
2022/04/24 18:48:52;;;;;;;7.22;4.80;;;;;;;16.26;55.78;99398.50;8241692;28;20130;-61
2022/04/24 18:52:53;;;;;;;8.02;5.10;;;;;;;16.15;56.47;99401.78;8247914;28;20062;-62
2022/04/24 18:56:53;;;;;;;5.97;4.50;;;;;;;16.11;56.57;99405.97;8248750;28;20049;-62
2022/04/24 19:00:54;;;;;;;7.13;4.70;;;;;;;16.02;57.08;99417.25;8248534;28;20050;-62
2022/04/24 19:09:15;;;;;;;5.18;4.68;;;;;;;15.93;57.67;99434.81;8248974;28;20456;-62
2022/04/24 19:13:17;;;;;;;8.87;4.70;;;;;;;15.93;57.85;99430.19;8247105;28;20121;-62
2022/04/24 19:17:17;;;;;;;6.88;5.57;;;;;;;15.87;58.04;99435.59;8249256;28;20299;-62
2022/04/24 19:21:19;;;;;;;8.75;4.78;;;;;;;15.83;58.53;99450.69;8246022;28;20133;-63
2022/04/24 19:25:19;;;;;;;6.50;4.47;;;;;;;15.73;58.66;99449.16;8252116;28;20119;-63